LROD-ORADEA

Valid from:2019-01-16 01:00:00

METAR LROD 160100Z AUTO 20014KT 9999 -SN OVC030/// 01/00 Q1010=

Valid from:2019-01-15 20:41:00

TAF AMD LROD 152041Z 1520/1603 CNL=